sensor_id;sensor_type;location;lat;lon;timestamp;P1;durP1;ratioP1;P2;durP2;ratioP2
26951;SDS011;14507;52.418;13.398;2023-12-22T00:00:08;9.60;;;1.73;;
26951;SDS011;14507;52.418;13.398;2023-12-22T00:02:34;15.32;;;2.75;;
26951;SDS011;14507;52.418;13.398;2023-12-22T00:05:00;15.07;;;2.78;;
26951;SDS011;14507;52.418;13.398;2023-12-22T00:07:26;11.65;;;2.03;;
26951;SDS011;14507;52.418;13.398;2023-12-22T00:09:51;17.65;;;2.85;;
26951;SDS011;14507;52.418;13.398;2023-12-22T00:12:17;11.88;;;2.42;;
26951;SDS011;14507;52.418;13.398;2023-12-22T00:14:42;14.85;;;2.20;;
26951;SDS011;14507;52.418;13.398;2023-12-22T00:17:08;15.55;;;2.65;;
26951;SDS011;14507;52.418;13.398;2023-12-22T00:19:34;18.35;;;2.15;;
26951;SDS011;14507;52.418;13.398;2023-12-22T00:21:59;10.52;;;1.88;;
26951;SDS011;14507;52.418;13.398;2023-12-22T00:24:25;16.33;;;2.50;;
26951;SDS011;14507;52.418;13.398;2023-12-22T00:26:50;21.95;;;2.97;;
26951;SDS011;14507;52.418;13.398;2023-12-22T00:29:16;14.70;;;2.83;;
26951;SDS011;14507;52.418;13.398;2023-12-22T00:31:42;20.70;;;2.97;;
26951;SDS011;14507;52.418;13.398;2023-12-22T00:34:07;18.30;;;2.75;;
26951;SDS011;14507;52.418;13.398;2023-12-22T00:36:33;21.85;;;3.17;;
26951;SDS011;14507;52.418;13.398;2023-12-22T00:38:58;18.30;;;2.67;;
26951;SDS011;14507;52.418;13.398;2023-12-22T00:41:24;20.10;;;3.72;;
26951;SDS011;14507;52.418;13.398;2023-12-22T00:43:49;20.15;;;3.00;;
26951;SDS011;14507;52.418;13.398;2023-12-22T00:46:15;17.45;;;2.85;;
26951;SDS011;14507;52.418;13.398;2023-12-22T00:48:41;20.27;;;3.28;;
26951;SDS011;14507;52.418;13.398;2023-12-22T00:51:06;19.17;;;2.80;;
26951;SDS011;14507;52.418;13.398;2023-12-22T00:53:34;15.05;;;2.45;;
26951;SDS011;14507;52.418;13.398;2023-12-22T00:56:00;15.88;;;2.63;;
26951;SDS011;14507;52.418;13.398;2023-12-22T00:58:28;11.30;;;2.23;;
26951;SDS011;14507;52.418;13.398;2023-12-22T01:00:54;22.10;;;3.25;;
26951;SDS011;14507;52.418;13.398;2023-12-22T01:03:20;14.32;;;2.42;;
26951;SDS011;14507;52.418;13.398;2023-12-22T01:05:46;16.15;;;2.33;;
26951;SDS011;14507;52.418;13.398;2023-12-22T01:08:11;14.25;;;2.20;;
26951;SDS011;14507;52.418;13.398;2023-12-22T01:10:37;10.88;;;2.55;;
26951;SDS011;14507;52.418;13.398;2023-12-22T01:13:02;14.60;;;2.28;;
26951;SDS011;14507;52.418;13.398;2023-12-22T01:15:28;13.98;;;2.33;;
26951;SDS011;14507;52.418;13.398;2023-12-22T01:17:54;11.20;;;2.35;;
26951;SDS011;14507;52.418;13.398;2023-12-22T01:20:19;16.00;;;2.38;;
26951;SDS011;14507;52.418;13.398;2023-12-22T01:22:45;13.55;;;2.70;;
26951;SDS011;14507;52.418;13.398;2023-12-22T01:25:10;15.57;;;2.30;;
26951;SDS011;14507;52.418;13.398;2023-12-22T01:27:36;12.27;;;2.85;;
26951;SDS011;14507;52.418;13.398;2023-12-22T01:30:02;24.08;;;3.38;;
26951;SDS011;14507;52.418;13.398;2023-12-22T01:32:28;16.20;;;2.72;;
26951;SDS011;14507;52.418;13.398;2023-12-22T01:34:59;15.15;;;2.97;;
26951;SDS011;14507;52.418;13.398;2023-12-22T01:37:28;24.63;;;3.45;;
26951;SDS011;14507;52.418;13.398;2023-12-22T01:39:57;15.80;;;2.70;;
26951;SDS011;14507;52.418;13.398;2023-12-22T01:42:23;13.43;;;2.45;;
26951;SDS011;14507;52.418;13.398;2023-12-22T01:44:48;21.48;;;2.90;;
26951;SDS011;14507;52.418;13.398;2023-12-22T01:47:14;17.08;;;2.75;;
26951;SDS011;14507;52.418;13.398;2023-12-22T01:49:40;19.02;;;2.88;;
26951;SDS011;14507;52.418;13.398;2023-12-22T01:52:06;22.15;;;3.53;;
26951;SDS011;14507;52.418;13.398;2023-12-22T01:54:32;12.88;;;2.60;;
26951;SDS011;14507;52.418;13.398;2023-12-22T01:56:58;17.90;;;3.22;;
26951;SDS011;14507;52.418;13.398;2023-12-22T01:59:24;22.52;;;3.38;;
26951;SDS011;14507;52.418;13.398;2023-12-22T02:01:50;22.33;;;3.45;;
26951;SDS011;14507;52.418;13.398;2023-12-22T02:04:18;23.92;;;3.83;;
26951;SDS011;14507;52.418;13.398;2023-12-22T02:06:44;21.95;;;3.08;;
26951;SDS011;14507;52.418;13.398;2023-12-22T02:09:09;24.17;;;3.33;;
26951;SDS011;14507;52.418;13.398;2023-12-22T02:11:37;19.67;;;3.38;;
26951;SDS011;14507;52.418;13.398;2023-12-22T02:14:03;17.15;;;2.20;;
26951;SDS011;14507;52.418;13.398;2023-12-22T02:19:09;15.73;;;3.33;;
26951;SDS011;14507;52.418;13.398;2023-12-22T02:22:02;14.55;;;2.72;;
26951;SDS011;14507;52.418;13.398;2023-12-22T02:24:29;21.35;;;3.58;;
26951;SDS011;14507;52.418;13.398;2023-12-22T02:30:08;15.55;;;2.70;;
26951;SDS011;14507;52.418;13.398;2023-12-22T02:32:40;18.95;;;2.92;;
26951;SDS011;14507;52.418;13.398;2023-12-22T02:35:08;13.27;;;2.53;;
26951;SDS011;14507;52.418;13.398;2023-12-22T02:37:36;21.38;;;2.83;;
26951;SDS011;14507;52.418;13.398;2023-12-22T02:40:04;18.05;;;3.00;;
26951;SDS011;14507;52.418;13.398;2023-12-22T02:42:32;22.15;;;3.25;;
26951;SDS011;14507;52.418;13.398;2023-12-22T02:44:59;15.98;;;2.92;;
26951;SDS011;14507;52.418;13.398;2023-12-22T02:47:25;12.13;;;2.28;;
26951;SDS011;14507;52.418;13.398;2023-12-22T02:49:54;13.00;;;2.33;;
26951;SDS011;14507;52.418;13.398;2023-12-22T02:52:20;28.63;;;3.38;;
26951;SDS011;14507;52.418;13.398;2023-12-22T02:54:45;12.93;;;2.47;;
26951;SDS011;14507;52.418;13.398;2023-12-22T02:57:12;16.15;;;2.60;;
26951;SDS011;14507;52.418;13.398;2023-12-22T02:59:38;16.45;;;3.05;;
26951;SDS011;14507;52.418;13.398;2023-12-22T03:02:04;15.27;;;2.22;;
26951;SDS011;14507;52.418;13.398;2023-12-22T03:04:30;12.88;;;2.22;;
26951;SDS011;14507;52.418;13.398;2023-12-22T03:06:55;15.68;;;2.42;;
26951;SDS011;14507;52.418;13.398;2023-12-22T03:09:21;13.40;;;2.70;;
26951;SDS011;14507;52.418;13.398;2023-12-22T03:11:47;10.75;;;1.65;;
26951;SDS011;14507;52.418;13.398;2023-12-22T03:14:13;10.10;;;1.92;;
26951;SDS011;14507;52.418;13.398;2023-12-22T03:16:39;10.13;;;2.10;;
26951;SDS011;14507;52.418;13.398;2023-12-22T03:19:06;12.55;;;2.05;;
26951;SDS011;14507;52.418;13.398;2023-12-22T03:21:32;10.50;;;2.03;;
26951;SDS011;14507;52.418;13.398;2023-12-22T03:23:58;20.30;;;2.75;;
26951;SDS011;14507;52.418;13.398;2023-12-22T03:26:23;12.05;;;2.30;;
26951;SDS011;14507;52.418;13.398;2023-12-22T03:28:52;15.32;;;2.30;;
26951;SDS011;14507;52.418;13.398;2023-12-22T03:31:18;13.52;;;2.20;;
26951;SDS011;14507;52.418;13.398;2023-12-22T03:33:43;13.43;;;1.98;;
26951;SDS011;14507;52.418;13.398;2023-12-22T03:36:09;12.35;;;2.00;;
26951;SDS011;14507;52.418;13.398;2023-12-22T03:38:34;13.27;;;2.03;;
26951;SDS011;14507;52.418;13.398;2023-12-22T03:41:00;13.23;;;2.13;;
26951;SDS011;14507;52.418;13.398;2023-12-22T03:43:26;14.55;;;1.83;;
26951;SDS011;14507;52.418;13.398;2023-12-22T03:45:51;13.95;;;2.08;;
26951;SDS011;14507;52.418;13.398;2023-12-22T03:48:17;10.80;;;2.00;;
26951;SDS011;14507;52.418;13.398;2023-12-22T03:50:42;9.95;;;2.03;;
26951;SDS011;14507;52.418;13.398;2023-12-22T03:53:08;16.08;;;2.38;;
26951;SDS011;14507;52.418;13.398;2023-12-22T03:55:34;11.90;;;2.08;;
26951;SDS011;14507;52.418;13.398;2023-12-22T03:57:59;12.32;;;1.65;;
26951;SDS011;14507;52.418;13.398;2023-12-22T04:00:25;13.25;;;1.83;;
26951;SDS011;14507;52.418;13.398;2023-12-22T04:02:51;8.30;;;2.03;;
26951;SDS011;14507;52.418;13.398;2023-12-22T04:05:17;7.95;;;1.20;;
26951;SDS011;14507;52.418;13.398;2023-12-22T04:07:42;7.65;;;1.27;;
26951;SDS011;14507;52.418;13.398;2023-12-22T04:10:08;10.02;;;1.50;;
26951;SDS011;14507;52.418;13.398;2023-12-22T04:12:34;7.88;;;1.77;;
26951;SDS011;14507;52.418;13.398;2023-12-22T04:14:59;7.78;;;1.15;;
26951;SDS011;14507;52.418;13.398;2023-12-22T04:17:25;8.55;;;1.20;;
26951;SDS011;14507;52.418;13.398;2023-12-22T04:19:50;8.02;;;1.33;;
26951;SDS011;14507;52.418;13.398;2023-12-22T04:22:17;9.52;;;1.80;;
26951;SDS011;14507;52.418;13.398;2023-12-22T04:24:43;9.70;;;1.20;;
26951;SDS011;14507;52.418;13.398;2023-12-22T04:27:08;13.85;;;1.80;;
26951;SDS011;14507;52.418;13.398;2023-12-22T04:29:34;9.77;;;1.77;;
26951;SDS011;14507;52.418;13.398;2023-12-22T04:31:59;5.32;;;1.48;;
26951;SDS011;14507;52.418;13.398;2023-12-22T04:34:25;11.73;;;1.83;;
26951;SDS011;14507;52.418;13.398;2023-12-22T04:36:51;10.57;;;1.60;;
26951;SDS011;14507;52.418;13.398;2023-12-22T04:39:16;8.40;;;1.40;;
26951;SDS011;14507;52.418;13.398;2023-12-22T04:41:43;8.48;;;1.40;;
26951;SDS011;14507;52.418;13.398;2023-12-22T04:44:32;9.70;;;1.58;;
26951;SDS011;14507;52.418;13.398;2023-12-22T04:47:07;8.43;;;1.45;;
26951;SDS011;14507;52.418;13.398;2023-12-22T04:49:38;11.55;;;1.50;;
26951;SDS011;14507;52.418;13.398;2023-12-22T04:52:04;7.68;;;1.33;;
26951;SDS011;14507;52.418;13.398;2023-12-22T04:54:31;8.57;;;1.60;;
26951;SDS011;14507;52.418;13.398;2023-12-22T04:56:57;12.88;;;1.83;;
26951;SDS011;14507;52.418;13.398;2023-12-22T04:59:22;11.90;;;1.75;;
26951;SDS011;14507;52.418;13.398;2023-12-22T05:01:48;6.68;;;1.30;;
26951;SDS011;14507;52.418;13.398;2023-12-22T05:04:14;4.97;;;1.17;;
26951;SDS011;14507;52.418;13.398;2023-12-22T05:06:40;13.25;;;2.05;;
26951;SDS011;14507;52.418;13.398;2023-12-22T05:09:05;7.28;;;1.05;;
26951;SDS011;14507;52.418;13.398;2023-12-22T05:11:31;5.63;;;1.83;;
26951;SDS011;14507;52.418;13.398;2023-12-22T05:13:56;4.30;;;1.30;;
26951;SDS011;14507;52.418;13.398;2023-12-22T05:16:22;5.65;;;1.17;;
26951;SDS011;14507;52.418;13.398;2023-12-22T05:18:48;7.80;;;0.90;;
26951;SDS011;14507;52.418;13.398;2023-12-22T05:21:13;6.20;;;0.90;;
26951;SDS011;14507;52.418;13.398;2023-12-22T05:23:39;3.58;;;0.98;;
26951;SDS011;14507;52.418;13.398;2023-12-22T05:26:05;5.55;;;1.30;;
26951;SDS011;14507;52.418;13.398;2023-12-22T05:28:31;4.65;;;0.70;;
26951;SDS011;14507;52.418;13.398;2023-12-22T05:30:58;9.75;;;1.88;;
26951;SDS011;14507;52.418;13.398;2023-12-22T05:33:23;5.65;;;1.05;;
26951;SDS011;14507;52.418;13.398;2023-12-22T05:35:49;5.60;;;0.93;;
26951;SDS011;14507;52.418;13.398;2023-12-22T05:38:14;3.92;;;0.88;;
26951;SDS011;14507;52.418;13.398;2023-12-22T05:40:40;7.47;;;1.10;;
26951;SDS011;14507;52.418;13.398;2023-12-22T05:43:06;8.40;;;1.60;;
26951;SDS011;14507;52.418;13.398;2023-12-22T05:45:32;4.07;;;0.88;;
26951;SDS011;14507;52.418;13.398;2023-12-22T05:47:58;12.85;;;2.80;;
26951;SDS011;14507;52.418;13.398;2023-12-22T05:50:23;6.40;;;1.42;;
26951;SDS011;14507;52.418;13.398;2023-12-22T05:52:49;11.48;;;1.35;;
26951;SDS011;14507;52.418;13.398;2023-12-22T05:55:15;7.78;;;1.50;;
26951;SDS011;14507;52.418;13.398;2023-12-22T05:57:40;6.50;;;1.38;;
26951;SDS011;14507;52.418;13.398;2023-12-22T06:00:06;7.85;;;1.27;;
26951;SDS011;14507;52.418;13.398;2023-12-22T06:02:34;11.05;;;1.73;;
26951;SDS011;14507;52.418;13.398;2023-12-22T06:05:00;9.85;;;1.50;;
26951;SDS011;14507;52.418;13.398;2023-12-22T06:07:26;9.93;;;1.40;;
26951;SDS011;14507;52.418;13.398;2023-12-22T06:09:52;8.30;;;1.65;;
26951;SDS011;14507;52.418;13.398;2023-12-22T06:12:17;14.80;;;1.92;;
26951;SDS011;14507;52.418;13.398;2023-12-22T06:14:43;8.48;;;1.52;;
26951;SDS011;14507;52.418;13.398;2023-12-22T06:17:09;8.63;;;2.15;;
26951;SDS011;14507;52.418;13.398;2023-12-22T06:19:37;11.05;;;1.83;;
26951;SDS011;14507;52.418;13.398;2023-12-22T06:22:03;8.10;;;1.20;;
26951;SDS011;14507;52.418;13.398;2023-12-22T06:24:29;3.72;;;1.05;;
26951;SDS011;14507;52.418;13.398;2023-12-22T06:26:54;4.38;;;1.00;;
26951;SDS011;14507;52.418;13.398;2023-12-22T06:29:20;6.07;;;1.10;;
26951;SDS011;14507;52.418;13.398;2023-12-22T06:31:46;5.70;;;1.63;;
26951;SDS011;14507;52.418;13.398;2023-12-22T06:34:15;5.28;;;1.13;;
26951;SDS011;14507;52.418;13.398;2023-12-22T06:36:41;9.70;;;1.13;;
26951;SDS011;14507;52.418;13.398;2023-12-22T06:39:07;5.18;;;1.00;;
26951;SDS011;14507;52.418;13.398;2023-12-22T06:41:33;4.03;;;1.08;;
26951;SDS011;14507;52.418;13.398;2023-12-22T06:43:59;3.88;;;0.70;;
26951;SDS011;14507;52.418;13.398;2023-12-22T06:46:25;4.57;;;0.88;;
26951;SDS011;14507;52.418;13.398;2023-12-22T06:48:51;7.50;;;0.93;;
26951;SDS011;14507;52.418;13.398;2023-12-22T06:51:22;7.53;;;1.15;;
26951;SDS011;14507;52.418;13.398;2023-12-22T06:53:48;4.25;;;0.98;;
26951;SDS011;14507;52.418;13.398;2023-12-22T06:56:16;3.95;;;1.02;;
26951;SDS011;14507;52.418;13.398;2023-12-22T06:58:45;11.70;;;1.33;;
26951;SDS011;14507;52.418;13.398;2023-12-22T07:01:23;2.85;;;0.65;;
26951;SDS011;14507;52.418;13.398;2023-12-22T07:03:50;3.75;;;1.13;;
26951;SDS011;14507;52.418;13.398;2023-12-22T07:06:20;6.90;;;0.95;;
26951;SDS011;14507;52.418;13.398;2023-12-22T07:11:36;8.00;;;1.20;;
26951;SDS011;14507;52.418;13.398;2023-12-22T07:14:02;6.28;;;0.90;;
26951;SDS011;14507;52.418;13.398;2023-12-22T07:16:28;9.32;;;1.73;;
26951;SDS011;14507;52.418;13.398;2023-12-22T07:18:53;6.70;;;1.20;;
26951;SDS011;14507;52.418;13.398;2023-12-22T07:21:19;6.25;;;1.40;;
26951;SDS011;14507;52.418;13.398;2023-12-22T07:23:45;8.68;;;1.40;;
26951;SDS011;14507;52.418;13.398;2023-12-22T07:26:11;6.28;;;1.30;;
26951;SDS011;14507;52.418;13.398;2023-12-22T07:28:36;6.15;;;1.30;;
26951;SDS011;14507;52.418;13.398;2023-12-22T07:31:02;8.02;;;1.27;;
26951;SDS011;14507;52.418;13.398;2023-12-22T07:33:28;4.25;;;1.13;;
26951;SDS011;14507;52.418;13.398;2023-12-22T07:35:54;9.73;;;1.30;;
26951;SDS011;14507;52.418;13.398;2023-12-22T07:38:19;7.13;;;1.55;;
26951;SDS011;14507;52.418;13.398;2023-12-22T07:40:45;8.57;;;1.70;;
26951;SDS011;14507;52.418;13.398;2023-12-22T07:43:11;9.90;;;2.20;;
26951;SDS011;14507;52.418;13.398;2023-12-22T07:45:38;12.10;;;1.60;;
26951;SDS011;14507;52.418;13.398;2023-12-22T07:48:04;10.10;;;1.40;;
26951;SDS011;14507;52.418;13.398;2023-12-22T07:50:29;6.35;;;1.30;;
26951;SDS011;14507;52.418;13.398;2023-12-22T07:52:55;10.43;;;1.77;;
26951;SDS011;14507;52.418;13.398;2023-12-22T07:55:21;7.28;;;1.67;;
26951;SDS011;14507;52.418;13.398;2023-12-22T07:57:46;14.18;;;2.47;;
26951;SDS011;14507;52.418;13.398;2023-12-22T08:00:12;13.55;;;2.20;;
26951;SDS011;14507;52.418;13.398;2023-12-22T08:02:38;10.15;;;1.98;;
26951;SDS011;14507;52.418;13.398;2023-12-22T08:05:04;13.02;;;1.90;;
26951;SDS011;14507;52.418;13.398;2023-12-22T08:07:30;11.85;;;1.90;;
26951;SDS011;14507;52.418;13.398;2023-12-22T08:09:56;6.28;;;1.95;;
26951;SDS011;14507;52.418;13.398;2023-12-22T08:12:22;8.00;;;1.30;;
26951;SDS011;14507;52.418;13.398;2023-12-22T08:14:48;7.32;;;1.48;;
26951;SDS011;14507;52.418;13.398;2023-12-22T08:17:14;7.13;;;1.17;;
26951;SDS011;14507;52.418;13.398;2023-12-22T08:19:40;4.47;;;1.00;;
26951;SDS011;14507;52.418;13.398;2023-12-22T08:22:09;5.30;;;1.25;;
26951;SDS011;14507;52.418;13.398;2023-12-22T08:24:35;5.78;;;1.00;;
26951;SDS011;14507;52.418;13.398;2023-12-22T08:27:01;7.35;;;1.33;;
26951;SDS011;14507;52.418;13.398;2023-12-22T08:29:27;6.22;;;1.30;;
26951;SDS011;14507;52.418;13.398;2023-12-22T08:31:52;5.30;;;1.05;;
26951;SDS011;14507;52.418;13.398;2023-12-22T08:34:18;8.55;;;1.52;;
26951;SDS011;14507;52.418;13.398;2023-12-22T08:36:44;7.40;;;1.13;;
26951;SDS011;14507;52.418;13.398;2023-12-22T08:39:10;10.20;;;1.70;;
26951;SDS011;14507;52.418;13.398;2023-12-22T08:41:35;8.27;;;1.52;;
26951;SDS011;14507;52.418;13.398;2023-12-22T08:44:02;6.50;;;1.27;;
26951;SDS011;14507;52.418;13.398;2023-12-22T08:46:29;13.63;;;1.50;;
26951;SDS011;14507;52.418;13.398;2023-12-22T08:48:56;6.70;;;1.10;;
26951;SDS011;14507;52.418;13.398;2023-12-22T08:51:22;6.30;;;1.30;;
26951;SDS011;14507;52.418;13.398;2023-12-22T08:53:47;11.90;;;1.40;;
26951;SDS011;14507;52.418;13.398;2023-12-22T08:56:15;13.98;;;2.08;;
26951;SDS011;14507;52.418;13.398;2023-12-22T08:58:42;12.85;;;1.73;;
26951;SDS011;14507;52.418;13.398;2023-12-22T09:01:07;18.20;;;1.90;;
26951;SDS011;14507;52.418;13.398;2023-12-22T09:03:38;11.98;;;2.38;;
26951;SDS011;14507;52.418;13.398;2023-12-22T09:06:08;9.52;;;1.77;;
26951;SDS011;14507;52.418;13.398;2023-12-22T09:08:34;9.45;;;1.60;;
26951;SDS011;14507;52.418;13.398;2023-12-22T09:11:00;14.25;;;1.90;;
26951;SDS011;14507;52.418;13.398;2023-12-22T09:13:25;9.90;;;1.90;;
26951;SDS011;14507;52.418;13.398;2023-12-22T09:15:51;14.93;;;2.47;;
26951;SDS011;14507;52.418;13.398;2023-12-22T09:18:16;9.68;;;1.83;;
26951;SDS011;14507;52.418;13.398;2023-12-22T09:20:42;18.75;;;2.28;;
26951;SDS011;14507;52.418;13.398;2023-12-22T09:23:08;14.38;;;2.05;;
26951;SDS011;14507;52.418;13.398;2023-12-22T09:25:35;11.65;;;1.60;;
26951;SDS011;14507;52.418;13.398;2023-12-22T09:28:00;17.85;;;2.60;;
26951;SDS011;14507;52.418;13.398;2023-12-22T09:30:26;14.50;;;2.42;;
26951;SDS011;14507;52.418;13.398;2023-12-22T09:32:52;14.57;;;2.17;;
26951;SDS011;14507;52.418;13.398;2023-12-22T09:35:17;12.07;;;1.73;;
26951;SDS011;14507;52.418;13.398;2023-12-22T09:37:43;15.27;;;1.77;;
26951;SDS011;14507;52.418;13.398;2023-12-22T09:40:09;12.02;;;1.90;;
26951;SDS011;14507;52.418;13.398;2023-12-22T09:42:35;18.42;;;2.30;;
26951;SDS011;14507;52.418;13.398;2023-12-22T09:45:05;15.90;;;1.77;;
26951;SDS011;14507;52.418;13.398;2023-12-22T09:47:33;18.02;;;2.47;;
26951;SDS011;14507;52.418;13.398;2023-12-22T09:50:00;23.50;;;2.30;;
26951;SDS011;14507;52.418;13.398;2023-12-22T09:52:26;23.13;;;3.45;;
26951;SDS011;14507;52.418;13.398;2023-12-22T09:54:54;19.20;;;2.78;;
26951;SDS011;14507;52.418;13.398;2023-12-22T09:57:21;22.02;;;2.60;;
26951;SDS011;14507;52.418;13.398;2023-12-22T09:59:49;13.88;;;2.15;;
26951;SDS011;14507;52.418;13.398;2023-12-22T10:02:19;25.00;;;3.22;;
26951;SDS011;14507;52.418;13.398;2023-12-22T10:04:45;16.00;;;2.40;;
26951;SDS011;14507;52.418;13.398;2023-12-22T10:07:11;16.63;;;3.03;;
26951;SDS011;14507;52.418;13.398;2023-12-22T10:09:39;19.42;;;2.47;;
26951;SDS011;14507;52.418;13.398;2023-12-22T10:12:07;14.38;;;2.55;;
26951;SDS011;14507;52.418;13.398;2023-12-22T10:14:36;16.13;;;2.47;;
26951;SDS011;14507;52.418;13.398;2023-12-22T10:17:03;20.85;;;2.72;;
26951;SDS011;14507;52.418;13.398;2023-12-22T10:19:30;23.63;;;2.97;;
26951;SDS011;14507;52.418;13.398;2023-12-22T10:21:55;18.25;;;2.80;;
26951;SDS011;14507;52.418;13.398;2023-12-22T10:24:37;15.82;;;2.53;;
26951;SDS011;14507;52.418;13.398;2023-12-22T10:27:07;20.77;;;2.78;;
26951;SDS011;14507;52.418;13.398;2023-12-22T10:29:33;23.00;;;3.92;;
26951;SDS011;14507;52.418;13.398;2023-12-22T10:32:03;21.33;;;2.70;;
26951;SDS011;14507;52.418;13.398;2023-12-22T10:34:29;19.10;;;2.75;;
26951;SDS011;14507;52.418;13.398;2023-12-22T10:36:56;26.33;;;3.58;;
26951;SDS011;14507;52.418;13.398;2023-12-22T10:39:22;24.58;;;3.13;;
26951;SDS011;14507;52.418;13.398;2023-12-22T10:41:48;33.80;;;4.60;;
26951;SDS011;14507;52.418;13.398;2023-12-22T10:44:16;20.48;;;2.35;;
26951;SDS011;14507;52.418;13.398;2023-12-22T10:46:44;18.80;;;2.85;;
26951;SDS011;14507;52.418;13.398;2023-12-22T10:49:12;16.13;;;2.42;;
26951;SDS011;14507;52.418;13.398;2023-12-22T10:51:38;20.08;;;3.53;;
26951;SDS011;14507;52.418;13.398;2023-12-22T10:54:04;15.90;;;2.63;;
26951;SDS011;14507;52.418;13.398;2023-12-22T10:56:32;13.55;;;2.25;;
26951;SDS011;14507;52.418;13.398;2023-12-22T10:58:58;18.70;;;2.35;;
26951;SDS011;14507;52.418;13.398;2023-12-22T11:01:26;13.02;;;2.33;;
26951;SDS011;14507;52.418;13.398;2023-12-22T11:03:54;14.48;;;2.33;;
26951;SDS011;14507;52.418;13.398;2023-12-22T11:06:26;21.52;;;2.45;;
26951;SDS011;14507;52.418;13.398;2023-12-22T11:08:54;15.27;;;2.53;;
26951;SDS011;14507;52.418;13.398;2023-12-22T11:11:30;11.68;;;2.05;;
26951;SDS011;14507;52.418;13.398;2023-12-22T11:13:59;14.93;;;1.77;;
26951;SDS011;14507;52.418;13.398;2023-12-22T11:16:25;22.33;;;2.50;;
26951;SDS011;14507;52.418;13.398;2023-12-22T11:18:53;17.65;;;2.63;;
26951;SDS011;14507;52.418;13.398;2023-12-22T11:21:22;22.42;;;2.80;;
26951;SDS011;14507;52.418;13.398;2023-12-22T11:23:50;22.33;;;2.63;;
26951;SDS011;14507;52.418;13.398;2023-12-22T11:26:20;17.02;;;3.33;;
26951;SDS011;14507;52.418;13.398;2023-12-22T11:28:48;17.25;;;2.50;;
26951;SDS011;14507;52.418;13.398;2023-12-22T11:31:16;17.13;;;2.22;;
26951;SDS011;14507;52.418;13.398;2023-12-22T11:33:43;20.73;;;2.97;;
26951;SDS011;14507;52.418;13.398;2023-12-22T11:36:15;12.68;;;1.90;;
26951;SDS011;14507;52.418;13.398;2023-12-22T11:38:42;16.10;;;2.67;;
26951;SDS011;14507;52.418;13.398;2023-12-22T11:41:19;16.85;;;3.88;;
26951;SDS011;14507;52.418;13.398;2023-12-22T11:43:54;22.23;;;2.58;;
26951;SDS011;14507;52.418;13.398;2023-12-22T11:46:22;14.20;;;2.22;;
26951;SDS011;14507;52.418;13.398;2023-12-22T11:48:52;8.38;;;2.03;;
26951;SDS011;14507;52.418;13.398;2023-12-22T11:51:18;16.40;;;2.40;;
26951;SDS011;14507;52.418;13.398;2023-12-22T11:53:44;15.15;;;2.10;;
26951;SDS011;14507;52.418;13.398;2023-12-22T11:56:11;15.13;;;2.63;;
26951;SDS011;14507;52.418;13.398;2023-12-22T12:01:13;18.25;;;3.00;;
26951;SDS011;14507;52.418;13.398;2023-12-22T12:03:52;16.10;;;2.38;;
26951;SDS011;14507;52.418;13.398;2023-12-22T12:08:58;12.00;;;2.42;;
26951;SDS011;14507;52.418;13.398;2023-12-22T12:14:29;13.20;;;2.33;;
26951;SDS011;14507;52.418;13.398;2023-12-22T12:17:08;15.05;;;2.28;;
26951;SDS011;14507;52.418;13.398;2023-12-22T12:19:35;13.18;;;2.03;;
26951;SDS011;14507;52.418;13.398;2023-12-22T12:22:02;13.98;;;2.65;;
26951;SDS011;14507;52.418;13.398;2023-12-22T12:24:28;18.23;;;3.15;;
26951;SDS011;14507;52.418;13.398;2023-12-22T12:26:54;19.33;;;2.53;;
26951;SDS011;14507;52.418;13.398;2023-12-22T12:29:20;15.20;;;3.00;;
26951;SDS011;14507;52.418;13.398;2023-12-22T12:31:47;19.00;;;3.00;;
26951;SDS011;14507;52.418;13.398;2023-12-22T12:34:12;14.93;;;2.25;;
26951;SDS011;14507;52.418;13.398;2023-12-22T12:36:41;19.35;;;2.38;;
26951;SDS011;14507;52.418;13.398;2023-12-22T12:39:07;14.95;;;2.13;;
26951;SDS011;14507;52.418;13.398;2023-12-22T12:41:35;12.23;;;1.98;;
26951;SDS011;14507;52.418;13.398;2023-12-22T12:44:05;13.68;;;2.40;;
26951;SDS011;14507;52.418;13.398;2023-12-22T12:46:32;17.40;;;2.33;;
26951;SDS011;14507;52.418;13.398;2023-12-22T12:49:17;15.85;;;2.80;;
26951;SDS011;14507;52.418;13.398;2023-12-22T12:51:44;25.80;;;2.13;;
26951;SDS011;14507;52.418;13.398;2023-12-22T12:54:12;15.88;;;2.53;;
26951;SDS011;14507;52.418;13.398;2023-12-22T12:56:42;18.75;;;2.60;;
26951;SDS011;14507;52.418;13.398;2023-12-22T12:59:12;18.63;;;2.58;;
26951;SDS011;14507;52.418;13.398;2023-12-22T13:01:42;18.90;;;2.88;;
26951;SDS011;14507;52.418;13.398;2023-12-22T13:04:09;14.18;;;2.80;;
26951;SDS011;14507;52.418;13.398;2023-12-22T13:06:35;14.70;;;2.58;;
26951;SDS011;14507;52.418;13.398;2023-12-22T13:09:11;18.92;;;3.08;;
26951;SDS011;14507;52.418;13.398;2023-12-22T13:11:38;22.27;;;3.08;;
26951;SDS011;14507;52.418;13.398;2023-12-22T13:14:05;12.98;;;2.10;;
26951;SDS011;14507;52.418;13.398;2023-12-22T13:16:32;20.95;;;2.88;;
26951;SDS011;14507;52.418;13.398;2023-12-22T13:18:59;24.73;;;3.10;;
26951;SDS011;14507;52.418;13.398;2023-12-22T13:21:25;17.02;;;2.83;;
26951;SDS011;14507;52.418;13.398;2023-12-22T13:24:10;19.35;;;2.28;;
26951;SDS011;14507;52.418;13.398;2023-12-22T13:26:40;16.77;;;2.83;;
26951;SDS011;14507;52.418;13.398;2023-12-22T13:29:07;17.08;;;3.22;;
26951;SDS011;14507;52.418;13.398;2023-12-22T13:31:33;19.67;;;2.42;;
26951;SDS011;14507;52.418;13.398;2023-12-22T13:34:02;12.15;;;2.00;;
26951;SDS011;14507;52.418;13.398;2023-12-22T13:36:33;15.95;;;2.30;;
26951;SDS011;14507;52.418;13.398;2023-12-22T13:39:00;15.95;;;2.50;;
26951;SDS011;14507;52.418;13.398;2023-12-22T13:41:25;14.40;;;2.42;;
26951;SDS011;14507;52.418;13.398;2023-12-22T13:43:51;16.27;;;3.00;;
26951;SDS011;14507;52.418;13.398;2023-12-22T13:46:17;22.73;;;2.92;;
26951;SDS011;14507;52.418;13.398;2023-12-22T13:48:43;15.93;;;2.33;;
26951;SDS011;14507;52.418;13.398;2023-12-22T13:51:09;23.67;;;2.95;;
26951;SDS011;14507;52.418;13.398;2023-12-22T13:53:46;18.15;;;2.55;;
26951;SDS011;14507;52.418;13.398;2023-12-22T13:56:15;19.02;;;3.00;;
26951;SDS011;14507;52.418;13.398;2023-12-22T13:58:44;18.42;;;2.38;;
26951;SDS011;14507;52.418;13.398;2023-12-22T14:01:17;16.35;;;2.20;;
26951;SDS011;14507;52.418;13.398;2023-12-22T14:03:43;18.67;;;3.28;;
26951;SDS011;14507;52.418;13.398;2023-12-22T14:06:11;15.05;;;2.88;;
26951;SDS011;14507;52.418;13.398;2023-12-22T14:08:40;11.05;;;2.03;;
26951;SDS011;14507;52.418;13.398;2023-12-22T14:11:09;12.77;;;2.38;;
26951;SDS011;14507;52.418;13.398;2023-12-22T14:13:34;13.38;;;2.10;;
26951;SDS011;14507;52.418;13.398;2023-12-22T14:16:05;9.00;;;2.03;;
26951;SDS011;14507;52.418;13.398;2023-12-22T14:18:31;9.52;;;1.70;;
26951;SDS011;14507;52.418;13.398;2023-12-22T14:20:56;10.38;;;2.72;;
26951;SDS011;14507;52.418;13.398;2023-12-22T14:23:23;22.08;;;2.30;;
26951;SDS011;14507;52.418;13.398;2023-12-22T14:25:49;16.88;;;2.03;;
26951;SDS011;14507;52.418;13.398;2023-12-22T14:28:14;12.63;;;1.58;;
26951;SDS011;14507;52.418;13.398;2023-12-22T14:30:40;13.75;;;1.65;;
26951;SDS011;14507;52.418;13.398;2023-12-22T14:33:06;12.18;;;1.52;;
26951;SDS011;14507;52.418;13.398;2023-12-22T14:35:31;11.82;;;1.58;;
26951;SDS011;14507;52.418;13.398;2023-12-22T14:37:57;8.18;;;1.67;;
26951;SDS011;14507;52.418;13.398;2023-12-22T14:40:23;9.75;;;1.60;;